Airport View

Enter AWOS ICAO identifier for current METAR.

ex. KFNL

KMRH 080758Z AUTO 24010KT 10SM CLR 18/17 A2973 RMK AO2 SLP067 T01830167

8 Apr 2020 08:48

Frequency: 135.375

Phone: 252-728-2055

Other Area AWOS: KNKT - KNJM - KNBT - KEWN

TAF KNKT 0809/0909 25010KT 9999 FEW100 QNH2969INS FM082100 24008KT 9999 FEW050 QNH2960INS T19/0809Z T30/08920Z